createdAt,value
2023-11-28T00:01:23.624Z,12.68
2023-11-28T00:03:50.207Z,12.68
2023-11-28T00:06:18.792Z,12.67
2023-11-28T00:08:46.347Z,12.67
2023-11-28T00:11:23.905Z,12.67
2023-11-28T00:13:51.588Z,12.68
2023-11-28T00:16:18.735Z,12.66
2023-11-28T00:18:45.504Z,12.67
2023-11-28T00:21:13.356Z,12.67
2023-11-28T00:23:39.865Z,12.66
2023-11-28T00:26:06.566Z,12.67
2023-11-28T00:28:33.408Z,12.66
2023-11-28T00:30:59.957Z,12.66
2023-11-28T00:33:26.457Z,12.66
2023-11-28T00:35:53.121Z,12.65
2023-11-28T00:38:19.684Z,12.66
2023-11-28T00:40:46.276Z,12.66
2023-11-28T00:43:12.851Z,12.66
2023-11-28T00:45:41.264Z,12.66
2023-11-28T00:48:07.857Z,12.65
2023-11-28T00:50:34.407Z,12.65
2023-11-28T00:53:00.955Z,12.65
2023-11-28T00:55:32.625Z,12.65
2023-11-28T00:57:59.240Z,12.66
2023-11-28T01:00:26.594Z,12.65
2023-11-28T01:02:53.403Z,12.65
2023-11-28T01:05:20.587Z,12.65
2023-11-28T01:07:47.607Z,12.64
2023-11-28T01:10:14.420Z,12.64
2023-11-28T01:12:40.894Z,12.64
2023-11-28T01:15:09.250Z,12.64
2023-11-28T01:17:35.819Z,12.64
2023-11-28T01:20:02.875Z,12.64
2023-11-28T01:22:29.901Z,12.65
2023-11-28T01:24:56.530Z,12.62
2023-11-28T01:27:23.033Z,12.63
2023-11-28T01:29:58.833Z,12.63
2023-11-28T01:32:25.320Z,12.64
2023-11-28T01:34:51.882Z,12.62
2023-11-28T01:37:20.463Z,12.62
2023-11-28T01:39:47.042Z,12.63
2023-11-28T01:42:14.287Z,12.63
2023-11-28T01:44:40.768Z,12.61
2023-11-28T01:47:08.149Z,12.62
2023-11-28T01:49:36.642Z,12.61
2023-11-28T01:52:04.300Z,12.61
2023-11-28T01:54:31.967Z,12.60
2023-11-28T01:56:59.147Z,12.61
2023-11-28T01:59:25.780Z,12.61
2023-11-28T02:01:52.626Z,12.61
2023-11-28T02:04:19.309Z,12.61
2023-11-28T02:06:46.706Z,12.60
2023-11-28T02:09:13.306Z,12.59
2023-11-28T02:11:39.823Z,12.60
2023-11-28T02:14:06.375Z,12.59
2023-11-28T02:16:33.093Z,12.59
2023-11-28T02:18:59.700Z,12.59
2023-11-28T02:21:26.244Z,12.59
2023-11-28T02:23:53.082Z,12.59
2023-11-28T02:26:23.840Z,12.60
2023-11-28T02:28:50.780Z,12.59
2023-11-28T02:31:17.652Z,12.58
2023-11-28T02:33:44.329Z,12.58
2023-11-28T02:36:11.283Z,12.58
2023-11-28T02:38:38.050Z,12.59
2023-11-28T02:41:04.661Z,12.58
2023-11-28T02:43:31.881Z,12.58
2023-11-28T02:45:58.746Z,12.58
2023-11-28T02:48:25.721Z,12.57
2023-11-28T02:50:52.497Z,12.57
2023-11-28T02:53:20.727Z,12.57
2023-11-28T02:55:47.257Z,12.56
2023-11-28T02:58:13.758Z,12.56
2023-11-28T03:00:40.277Z,12.56
2023-11-28T03:03:06.914Z,12.56
2023-11-28T03:05:36.573Z,12.57
2023-11-28T03:08:03.365Z,12.56
2023-11-28T03:10:30.047Z,12.56
2023-11-28T03:12:57.701Z,12.56
2023-11-28T03:15:24.400Z,12.56
2023-11-28T03:17:50.892Z,12.56
2023-11-28T03:20:17.522Z,12.56
2023-11-28T03:22:44.118Z,12.55
2023-11-28T03:25:15.017Z,12.55
2023-11-28T03:27:41.560Z,12.56
2023-11-28T03:30:08.666Z,12.55
2023-11-28T03:32:35.305Z,12.55
2023-11-28T03:35:01.946Z,12.56
2023-11-28T03:37:30.952Z,12.55
2023-11-28T03:39:57.467Z,12.54
2023-11-28T03:42:23.902Z,12.55
2023-11-28T03:44:50.664Z,12.54
2023-11-28T03:47:18.045Z,12.54
2023-11-28T03:49:44.633Z,12.54
2023-11-28T03:52:11.129Z,12.54
2023-11-28T03:54:37.612Z,12.53
2023-11-28T03:57:04.288Z,12.53
2023-11-28T03:59:30.737Z,12.52
2023-11-28T04:01:57.344Z,12.53
2023-11-28T04:04:23.872Z,12.52
2023-11-28T04:06:50.395Z,12.53
2023-11-28T04:09:16.906Z,12.53
2023-11-28T04:11:43.433Z,12.52
2023-11-28T04:14:10.006Z,12.52
2023-11-28T04:16:36.639Z,12.53
2023-11-28T04:19:03.278Z,12.52
2023-11-28T04:21:29.726Z,12.51
2023-11-28T04:23:58.209Z,12.50
2023-11-28T04:26:24.706Z,12.51
2023-11-28T04:28:51.202Z,12.50
2023-11-28T04:31:19.624Z,12.51
2023-11-28T04:33:46.751Z,12.51
2023-11-28T04:36:17.711Z,12.50
2023-11-28T04:38:45.203Z,12.50
2023-11-28T04:41:13.330Z,12.50
2023-11-28T04:43:40.207Z,12.49
2023-11-28T04:46:07.239Z,12.49
2023-11-28T04:48:36.598Z,12.49
2023-11-28T04:51:03.298Z,12.49
2023-11-28T04:53:32.331Z,12.49
2023-11-28T04:55:58.904Z,12.48
2023-11-28T04:58:25.393Z,12.48
2023-11-28T05:00:52.034Z,12.48
2023-11-28T05:03:18.773Z,12.48
2023-11-28T05:05:45.520Z,12.48
2023-11-28T05:08:13.053Z,12.47
2023-11-28T05:10:39.698Z,12.47
2023-11-28T05:13:06.354Z,12.47
2023-11-28T05:15:33.147Z,12.48
2023-11-28T05:17:59.881Z,12.47
2023-11-28T05:20:26.490Z,12.47
2023-11-28T05:22:53.047Z,12.47
2023-11-28T05:25:19.942Z,12.48
2023-11-28T05:27:47.318Z,12.46
2023-11-28T05:30:14.269Z,12.45
2023-11-28T05:32:40.890Z,12.45
2023-11-28T05:35:07.710Z,12.46
2023-11-28T05:37:34.297Z,12.45
2023-11-28T05:40:00.774Z,12.44
2023-11-28T05:42:27.652Z,12.45
2023-11-28T05:44:54.277Z,12.45
2023-11-28T05:47:20.923Z,12.43
2023-11-28T05:49:47.568Z,12.45
2023-11-28T05:52:14.138Z,12.44
2023-11-28T05:54:40.683Z,12.44
2023-11-28T05:57:07.241Z,12.43
2023-11-28T05:59:33.693Z,12.44
2023-11-28T06:02:05.407Z,12.44
2023-11-28T06:04:32.634Z,12.43
2023-11-28T06:06:59.396Z,12.42
2023-11-28T06:09:26.694Z,12.43
2023-11-28T06:11:55.038Z,12.42
2023-11-28T06:14:27.766Z,12.43
2023-11-28T06:19:35.522Z,12.42
2023-11-28T06:22:02.063Z,12.42
2023-11-28T06:24:28.526Z,12.41
2023-11-28T06:26:55.244Z,12.42
2023-11-28T06:29:23.317Z,12.41
2023-11-28T06:31:50.125Z,12.41
2023-11-28T06:34:17.038Z,12.41
2023-11-28T06:36:43.552Z,12.41
2023-11-28T06:39:10.043Z,12.40
2023-11-28T06:41:36.515Z,12.41
2023-11-28T06:44:04.422Z,12.40
2023-11-28T06:46:32.166Z,12.40
2023-11-28T06:48:58.834Z,12.39
2023-11-28T06:51:25.404Z,12.41
2023-11-28T06:53:51.891Z,12.39
2023-11-28T06:56:18.452Z,12.39
2023-11-28T06:58:44.937Z,12.39
2023-11-28T07:01:11.935Z,12.38
2023-11-28T07:03:44.541Z,12.39
2023-11-28T07:06:11.668Z,12.38
2023-11-28T07:08:38.272Z,12.39
2023-11-28T07:11:06.897Z,12.41
2023-11-28T07:13:38.971Z,12.42
2023-11-28T07:16:06.012Z,12.44
2023-11-28T07:18:35.941Z,12.44
2023-11-28T07:21:03.907Z,12.45
2023-11-28T07:23:30.932Z,12.47
2023-11-28T07:25:59.480Z,12.47
2023-11-28T07:28:26.238Z,12.47
2023-11-28T07:30:52.992Z,12.49
2023-11-28T07:33:19.928Z,12.50
2023-11-28T07:35:49.670Z,12.51
2023-11-28T07:38:17.543Z,12.54
2023-11-28T07:40:44.958Z,12.55
2023-11-28T07:43:12.726Z,12.56
2023-11-28T07:45:39.357Z,12.56
2023-11-28T07:48:06.284Z,12.58
2023-11-28T07:50:33.047Z,12.59
2023-11-28T07:52:59.695Z,12.60
2023-11-28T07:55:26.179Z,12.61
2023-11-28T07:57:52.705Z,12.63
2023-11-28T08:00:21.566Z,12.65
2023-11-28T08:02:48.501Z,12.66
2023-11-28T08:05:18.297Z,12.67
2023-11-28T08:07:46.514Z,12.69
2023-11-28T08:10:14.569Z,12.68
2023-11-28T08:12:41.019Z,12.70
2023-11-28T08:15:08.480Z,12.70
2023-11-28T08:17:35.511Z,12.72
2023-11-28T08:20:02.635Z,12.71
2023-11-28T08:22:29.199Z,12.71
2023-11-28T08:24:56.963Z,12.72
2023-11-28T08:27:23.469Z,12.73
2023-11-28T08:29:49.990Z,12.73
2023-11-28T08:32:17.306Z,12.75
2023-11-28T08:34:43.855Z,12.76
2023-11-28T08:37:10.644Z,12.77
2023-11-28T08:39:37.123Z,12.76
2023-11-28T08:42:03.864Z,12.77
2023-11-28T08:44:31.951Z,12.78
2023-11-28T08:46:58.824Z,12.80
2023-11-28T08:49:25.705Z,12.79
2023-11-28T08:51:52.409Z,12.80
2023-11-28T08:54:19.023Z,12.81
2023-11-28T08:56:45.518Z,12.82
2023-11-28T08:59:14.076Z,12.81
2023-11-28T09:01:41.194Z,12.82
2023-11-28T09:04:07.758Z,12.82
2023-11-28T09:06:34.303Z,12.82
2023-11-28T09:09:00.915Z,12.83
2023-11-28T09:11:27.532Z,12.82
2023-11-28T09:13:54.036Z,12.82
2023-11-28T09:16:22.260Z,12.81
2023-11-28T09:18:53.138Z,12.81
2023-11-28T09:21:22.805Z,12.80
2023-11-28T09:23:49.438Z,12.81
2023-11-28T09:26:16.108Z,12.80
2023-11-28T09:28:42.568Z,12.81
2023-11-28T09:31:09.105Z,12.81
2023-11-28T09:33:36.448Z,12.80
2023-11-28T09:36:03.071Z,12.81
2023-11-28T09:38:32.938Z,12.83
2023-11-28T09:40:59.681Z,12.84
2023-11-28T09:43:26.730Z,12.85
2023-11-28T09:46:02.737Z,12.86
2023-11-28T09:48:31.127Z,12.86
2023-11-28T09:51:01.050Z,12.86
2023-11-28T09:53:30.320Z,12.86
2023-11-28T09:56:00.481Z,12.86
2023-11-28T09:58:28.688Z,12.87
2023-11-28T10:01:00.110Z,12.88
2023-11-28T10:03:27.366Z,12.88
2023-11-28T10:05:56.350Z,12.88
2023-11-28T10:08:27.898Z,12.88
2023-11-28T10:10:57.786Z,12.89
2023-11-28T10:13:25.843Z,12.90
2023-11-28T10:15:55.512Z,12.90
2023-11-28T10:18:22.319Z,12.89
2023-11-28T10:20:49.303Z,12.88
2023-11-28T10:23:18.975Z,12.90
2023-11-28T10:25:45.639Z,12.90
2023-11-28T10:28:18.642Z,12.90
2023-11-28T10:30:51.505Z,12.91
2023-11-28T10:33:19.827Z,12.92
2023-11-28T10:35:46.704Z,12.93
2023-11-28T10:38:18.021Z,12.94
2023-11-28T10:40:51.495Z,12.94
2023-11-28T10:43:18.450Z,12.95
2023-11-28T10:45:46.313Z,12.96
2023-11-28T10:48:14.171Z,12.99
2023-11-28T10:50:44.505Z,13.00
2023-11-28T10:53:15.122Z,13.00
2023-11-28T10:55:54.671Z,13.01
2023-11-28T10:58:22.700Z,13.01
2023-11-28T11:00:56.319Z,13.02
2023-11-28T11:03:26.973Z,13.02
2023-11-28T11:05:55.806Z,13.03
2023-11-28T11:08:30.645Z,13.03
2023-11-28T11:10:57.696Z,13.04
2023-11-28T11:13:41.155Z,13.07
2023-11-28T11:16:16.705Z,13.06
2023-11-28T11:18:47.835Z,13.07
2023-11-28T11:21:24.294Z,13.08
2023-11-28T11:23:57.731Z,13.08
2023-11-28T11:26:36.388Z,13.09
2023-11-28T11:29:04.926Z,13.10
2023-11-28T11:31:31.501Z,13.10
2023-11-28T11:33:58.041Z,13.11
2023-11-28T11:36:25.970Z,13.12
2023-11-28T11:38:53.357Z,13.10
2023-11-28T11:41:20.151Z,13.11
2023-11-28T11:43:46.904Z,13.10
2023-11-28T11:46:18.324Z,13.11
2023-11-28T11:48:45.320Z,13.09
2023-11-28T11:51:12.031Z,13.09
2023-11-28T11:53:43.674Z,13.10
2023-11-28T11:56:11.035Z,13.09
2023-11-28T11:58:38.066Z,13.10
2023-11-28T12:01:05.439Z,13.10
2023-11-28T12:03:32.124Z,13.10
2023-11-28T12:05:59.466Z,13.11
2023-11-28T12:08:27.789Z,13.11
2023-11-28T12:11:10.248Z,13.10
2023-11-28T12:13:38.059Z,13.10
2023-11-28T12:16:05.259Z,13.09
2023-11-28T12:18:32.424Z,13.10
2023-11-28T12:21:01.542Z,13.10
2023-11-28T12:23:29.315Z,13.10
2023-11-28T12:25:57.533Z,13.10
2023-11-28T12:28:24.167Z,13.10
2023-11-28T12:30:51.253Z,13.10
2023-11-28T12:33:17.891Z,13.11
2023-11-28T12:35:48.580Z,13.11
2023-11-28T12:38:15.154Z,13.10
2023-11-28T12:40:46.987Z,13.11
2023-11-28T12:43:23.052Z,13.11
2023-11-28T12:45:52.964Z,13.13
2023-11-28T12:48:20.315Z,13.13
2023-11-28T12:50:51.446Z,13.11
2023-11-28T12:53:21.230Z,13.10
2023-11-28T12:55:48.630Z,13.11
2023-11-28T12:58:19.243Z,13.12
2023-11-28T13:00:48.533Z,13.12
2023-11-28T13:03:15.107Z,13.13
2023-11-28T13:05:41.930Z,13.13
2023-11-28T13:08:08.537Z,13.14
2023-11-28T13:10:36.272Z,13.13
2023-11-28T13:13:12.133Z,13.13
2023-11-28T13:15:43.996Z,13.14
2023-11-28T13:18:11.121Z,13.13
2023-11-28T13:20:37.788Z,13.15
2023-11-28T13:23:04.334Z,13.16
2023-11-28T13:25:30.852Z,13.16
2023-11-28T13:27:58.574Z,13.16
2023-11-28T13:30:26.974Z,13.17
2023-11-28T13:32:56.401Z,13.17
2023-11-28T13:35:23.184Z,13.18
2023-11-28T13:37:51.344Z,13.18
2023-11-28T13:40:17.852Z,13.19
2023-11-28T13:42:46.039Z,13.19
2023-11-28T13:45:13.913Z,13.19
2023-11-28T13:47:40.564Z,13.21
2023-11-28T13:50:10.561Z,13.21
2023-11-28T13:52:38.071Z,13.22
2023-11-28T13:55:05.628Z,13.22
2023-11-28T13:57:32.092Z,13.22
2023-11-28T13:59:58.625Z,13.21
2023-11-28T14:02:35.223Z,13.21
2023-11-28T14:05:10.038Z,13.20
2023-11-28T14:07:39.145Z,13.23
2023-11-28T14:10:06.791Z,13.21
2023-11-28T14:12:34.384Z,13.21
2023-11-28T14:15:01.352Z,13.21
2023-11-28T14:17:28.061Z,13.21
2023-11-28T14:19:56.352Z,13.22
2023-11-28T14:22:25.075Z,13.21
2023-11-28T14:24:51.833Z,13.22
2023-11-28T14:27:18.332Z,13.22
2023-11-28T14:29:45.700Z,13.24
2023-11-28T14:32:39.029Z,13.23
2023-11-28T14:35:07.021Z,13.24
2023-11-28T14:37:36.427Z,13.25
2023-11-28T14:40:09.201Z,13.26
2023-11-28T14:42:39.465Z,13.27
2023-11-28T14:45:08.352Z,13.28
2023-11-28T14:47:35.809Z,13.27
2023-11-28T14:50:06.257Z,13.29
2023-11-28T14:52:32.793Z,13.29
2023-11-28T14:54:59.236Z,13.30
2023-11-28T14:57:25.876Z,13.29
2023-11-28T14:59:52.434Z,13.30
2023-11-28T15:02:19.634Z,13.31
2023-11-28T15:04:46.289Z,13.31
2023-11-28T15:07:12.803Z,13.31
2023-11-28T15:09:39.563Z,13.30
2023-11-28T15:12:06.372Z,13.30
2023-11-28T15:14:32.994Z,13.30
2023-11-28T15:17:00.847Z,13.30
2023-11-28T15:19:28.641Z,13.30
2023-11-28T15:21:55.203Z,13.30
2023-11-28T15:24:21.753Z,13.29
2023-11-28T15:26:50.070Z,13.29
2023-11-28T15:29:16.997Z,13.29
2023-11-28T15:31:43.522Z,13.29
2023-11-28T15:34:12.418Z,13.29
2023-11-28T15:36:38.981Z,13.29
2023-11-28T15:39:14.216Z,13.29
2023-11-28T15:41:40.801Z,13.29
2023-11-28T15:44:07.336Z,13.30
2023-11-28T15:46:33.815Z,13.28
2023-11-28T15:49:00.290Z,13.29
2023-11-28T15:51:34.985Z,13.29
2023-11-28T15:54:07.888Z,13.30
2023-11-28T15:56:34.537Z,13.28
2023-11-28T15:59:01.292Z,13.28
2023-11-28T16:01:27.934Z,13.27
2023-11-28T16:03:54.532Z,13.25
2023-11-28T16:06:21.814Z,13.25
2023-11-28T16:08:48.412Z,13.23
2023-11-28T16:11:15.161Z,13.23
2023-11-28T16:13:42.260Z,13.22
2023-11-28T16:16:18.587Z,13.21
2023-11-28T16:18:45.102Z,13.20
2023-11-28T16:21:11.901Z,13.20
2023-11-28T16:23:38.489Z,13.18
2023-11-28T16:26:05.348Z,13.17
2023-11-28T16:28:33.227Z,13.17
2023-11-28T16:31:00.393Z,13.16
2023-11-28T16:33:26.941Z,13.16
2023-11-28T16:35:55.384Z,13.15
2023-11-28T16:38:23.272Z,13.15
2023-11-28T16:40:49.964Z,13.14
2023-11-28T16:43:16.625Z,13.13
2023-11-28T16:45:43.936Z,13.12
2023-11-28T16:48:10.699Z,13.13
2023-11-28T16:50:37.633Z,13.12
2023-11-28T16:53:04.143Z,13.12
2023-11-28T16:55:33.072Z,13.11
2023-11-28T16:57:59.580Z,13.10
2023-11-28T17:00:28.641Z,13.11
2023-11-28T17:02:55.369Z,13.10
2023-11-28T17:05:22.016Z,13.09
2023-11-28T17:07:49.131Z,13.09
2023-11-28T17:10:17.099Z,13.09
2023-11-28T17:12:46.628Z,13.09
2023-11-28T17:15:13.500Z,13.07
2023-11-28T17:17:40.108Z,13.08
2023-11-28T17:20:08.084Z,13.07
2023-11-28T17:22:34.747Z,13.07
2023-11-28T17:25:01.228Z,13.06
2023-11-28T17:27:27.677Z,13.06
2023-11-28T17:29:54.125Z,13.06
2023-11-28T17:32:20.667Z,13.05
2023-11-28T17:34:50.203Z,13.05
2023-11-28T17:37:16.714Z,13.05
2023-11-28T17:39:43.706Z,13.04
2023-11-28T17:42:10.744Z,13.04
2023-11-28T17:44:37.536Z,13.03
2023-11-28T17:47:04.492Z,13.04
2023-11-28T17:49:31.092Z,13.04
2023-11-28T17:51:57.656Z,13.03
2023-11-28T17:54:25.117Z,13.04
2023-11-28T17:56:51.656Z,13.03
2023-11-28T17:59:19.498Z,13.02
2023-11-28T18:01:46.124Z,13.02
2023-11-28T18:04:13.374Z,13.01
2023-11-28T18:06:40.629Z,13.01
2023-11-28T18:09:08.706Z,13.02
2023-11-28T18:11:35.295Z,13.01
2023-11-28T18:14:02.483Z,13.00
2023-11-28T18:16:28.912Z,13.00
2023-11-28T18:18:57.521Z,13.00
2023-11-28T18:21:27.839Z,13.00
2023-11-28T18:23:55.190Z,13.01
2023-11-28T18:26:21.697Z,13.00
2023-11-28T18:28:48.289Z,13.00
2023-11-28T18:31:15.047Z,12.99
2023-11-28T18:33:41.636Z,13.00
2023-11-28T18:36:09.414Z,12.99
2023-11-28T18:38:40.718Z,12.99
2023-11-28T18:41:14.635Z,12.99
2023-11-28T18:43:42.125Z,12.99
2023-11-28T18:46:13.985Z,12.99
2023-11-28T18:48:43.912Z,13.00
2023-11-28T18:51:20.704Z,12.99
2023-11-28T18:53:47.361Z,12.99
2023-11-28T18:56:24.914Z,12.99
2023-11-28T18:58:51.575Z,12.96
2023-11-28T19:01:20.066Z,12.98
2023-11-28T19:03:47.888Z,12.98
2023-11-28T19:06:15.143Z,12.96
2023-11-28T19:08:42.544Z,12.96
2023-11-28T19:11:11.728Z,12.96
2023-11-28T19:13:38.734Z,12.96
2023-11-28T19:16:06.715Z,12.96
2023-11-28T19:18:33.753Z,12.96
2023-11-28T19:21:01.088Z,12.96
2023-11-28T19:23:27.959Z,12.96
2023-11-28T19:25:54.470Z,12.95
2023-11-28T19:28:21.021Z,12.95
2023-11-28T19:30:47.537Z,12.95
2023-11-28T19:33:15.068Z,12.95
2023-11-28T19:35:41.587Z,12.96
2023-11-28T19:38:08.264Z,12.95
2023-11-28T19:40:35.081Z,12.94
2023-11-28T19:43:02.565Z,12.95
2023-11-28T19:45:29.085Z,12.94
2023-11-28T19:47:57.664Z,12.94
2023-11-28T19:50:25.522Z,12.95
2023-11-28T19:52:53.116Z,12.93
2023-11-28T19:55:19.613Z,12.94
2023-11-28T19:57:46.188Z,12.94
2023-11-28T20:00:13.415Z,12.94
2023-11-28T20:02:40.021Z,12.95
2023-11-28T20:05:07.558Z,12.95
2023-11-28T20:07:34.270Z,12.93
2023-11-28T20:10:00.959Z,12.93
2023-11-28T20:12:30.329Z,12.93
2023-11-28T20:14:56.792Z,12.94
2023-11-28T20:17:24.776Z,12.93
2023-11-28T20:19:51.276Z,12.93
2023-11-28T20:22:18.444Z,12.93
2023-11-28T20:24:44.928Z,12.93
2023-11-28T20:27:11.612Z,12.94
2023-11-28T20:29:39.309Z,12.92
2023-11-28T20:32:11.359Z,12.93
2023-11-28T20:34:38.333Z,12.92
2023-11-28T20:37:17.944Z,12.93
2023-11-28T20:39:46.225Z,12.93
2023-11-28T20:42:12.879Z,12.92
2023-11-28T20:44:39.443Z,12.93
2023-11-28T20:47:06.109Z,12.93
2023-11-28T20:49:32.620Z,12.92
2023-11-28T20:51:59.731Z,12.93
2023-11-28T20:54:26.928Z,12.92
2023-11-28T20:56:55.669Z,12.92
2023-11-28T20:59:22.322Z,12.92
2023-11-28T21:01:50.223Z,12.91
2023-11-28T21:04:16.934Z,12.92
2023-11-28T21:06:43.712Z,12.92
2023-11-28T21:09:11.189Z,12.91
2023-11-28T21:11:37.796Z,12.92
2023-11-28T21:14:04.364Z,12.91
2023-11-28T21:16:30.949Z,12.91
2023-11-28T21:18:57.506Z,12.92
2023-11-28T21:21:25.414Z,12.90
2023-11-28T21:23:56.567Z,12.91
2023-11-28T21:26:24.448Z,12.91
2023-11-28T21:28:54.323Z,12.91
2023-11-28T21:31:21.222Z,12.90
2023-11-28T21:33:47.881Z,12.90
2023-11-28T21:36:15.941Z,12.90
2023-11-28T21:38:45.351Z,12.89
2023-11-28T21:41:19.934Z,12.89
2023-11-28T21:43:46.527Z,12.88
2023-11-28T21:46:13.327Z,12.89
2023-11-28T21:48:42.753Z,12.88
2023-11-28T21:51:10.477Z,12.88
2023-11-28T21:53:37.074Z,12.89
2023-11-28T21:56:04.453Z,12.88
2023-11-28T21:58:31.365Z,12.88
2023-11-28T22:00:57.823Z,12.88
2023-11-28T22:03:27.100Z,12.88
2023-11-28T22:05:53.826Z,12.89
2023-11-28T22:08:23.262Z,12.87
2023-11-28T22:10:50.069Z,12.87
2023-11-28T22:13:16.950Z,12.86
2023-11-28T22:15:43.372Z,12.87
2023-11-28T22:18:10.203Z,12.87
2023-11-28T22:20:36.847Z,12.87
2023-11-28T22:23:03.550Z,12.86
2023-11-28T22:25:29.983Z,12.87
2023-11-28T22:27:57.431Z,12.87
2023-11-28T22:30:23.872Z,12.87
2023-11-28T22:32:50.699Z,12.87
2023-11-28T22:35:17.301Z,12.86
2023-11-28T22:37:48.161Z,12.87
2023-11-28T22:40:16.260Z,12.85
2023-11-28T22:42:43.820Z,12.86
2023-11-28T22:45:12.646Z,12.87
2023-11-28T22:47:39.999Z,12.86
2023-11-28T22:50:10.185Z,12.86
2023-11-28T22:52:36.889Z,12.85
2023-11-28T22:55:06.208Z,12.85
2023-11-28T22:57:33.300Z,12.86
2023-11-28T23:00:01.163Z,12.86
2023-11-28T23:02:27.759Z,12.84
2023-11-28T23:04:54.833Z,12.85
2023-11-28T23:07:21.286Z,12.84
2023-11-28T23:09:47.855Z,12.84
2023-11-28T23:12:17.701Z,12.85
2023-11-28T23:14:44.689Z,12.85
2023-11-28T23:17:11.689Z,12.84
2023-11-28T23:19:38.172Z,12.86
2023-11-28T23:22:04.780Z,12.84
2023-11-28T23:24:31.305Z,12.84
2023-11-28T23:26:57.759Z,12.84
2023-11-28T23:29:24.263Z,12.84
2023-11-28T23:31:50.757Z,12.83
2023-11-28T23:34:17.295Z,12.83
2023-11-28T23:36:44.166Z,12.83
2023-11-28T23:39:10.634Z,12.83
2023-11-28T23:41:37.387Z,12.82
2023-11-28T23:44:04.038Z,12.83
2023-11-28T23:46:30.516Z,12.82
2023-11-28T23:49:04.513Z,12.82
2023-11-28T23:51:32.649Z,12.82
2023-11-28T23:53:59.478Z,12.82
2023-11-28T23:56:26.014Z,12.82
2023-11-28T23:58:52.567Z,12.81
